Time;durP1;ratioP1;P1;durP2;ratioP2;P2;SDS_P1;SDS_P2;PMS_P1;PMS_P2;Temp;Humidity;BMP_temperature;BMP_pressure;BME280_temperature;BME280_humidity;BME280_pressure;Samples;Min_cycle;Max_cycle;Signal;HPM_P1;HPM_P2
2022/05/29 00:00:50;;;;;;;7.53;1.70;;;14.40;96.50;;;;;;6282447;22;20169;-89
2022/05/29 00:03:16;;;;;;;6.50;1.87;;;14.10;97.20;;;;;;6282418;22;20240;-89
2022/05/29 00:05:42;;;;;;;6.03;1.63;;;14.10;97.50;;;;;;6281662;22;20730;-89
2022/05/29 00:08:14;;;;;;;8.00;1.47;;;14.10;97.80;;;;;;6281527;22;20176;-88
2022/05/29 00:10:41;;;;;;;7.77;1.30;;;14.10;98.00;;;;;;6281181;22;20201;-90
2022/05/29 00:13:07;;;;;;;5.03;1.70;;;14.20;97.80;;;;;;6281385;22;20167;-89
2022/05/29 00:15:33;;;;;;;6.87;2.00;;;14.20;97.80;;;;;;6282221;22;20167;-90
2022/05/29 00:18:00;;;;;;;6.13;1.70;;;14.40;97.50;;;;;;6282958;22;20195;-89
2022/05/29 00:20:26;;;;;;;9.40;1.80;;;14.40;97.40;;;;;;6281912;22;20164;-89
2022/05/29 00:22:51;;;;;;;8.93;1.87;;;14.60;96.70;;;;;;6282323;22;20168;-89
2022/05/29 00:25:18;;;;;;;6.70;1.57;;;15.00;95.80;;;;;;6286462;22;20169;-89
2022/05/29 00:27:45;;;;;;;4.30;1.50;;;14.90;95.80;;;;;;6294440;22;20161;-89
2022/05/29 00:30:13;;;;;;;11.23;2.17;;;14.60;96.50;;;;;;6294772;22;20169;-89
2022/05/29 00:32:38;;;;;;;6.03;1.93;;;14.70;96.20;;;;;;6287858;22;20161;-89
2022/05/29 00:35:04;;;;;;;3.73;1.57;;;14.50;97.10;;;;;;6299641;22;20200;-89
2022/05/29 00:37:35;;;;;;;5.03;1.83;;;14.50;97.00;;;;;;6285739;22;20170;-89
2022/05/29 00:40:02;;;;;;;5.17;1.77;;;14.30;97.60;;;;;;6281827;22;20172;-90
2022/05/29 00:42:29;;;;;;;7.97;1.70;;;14.40;97.50;;;;;;6281207;22;20186;-89
2022/05/29 00:44:55;;;;;;;4.20;1.43;;;14.40;97.50;;;;;;6281377;22;20163;-90
2022/05/29 00:47:23;;;;;;;8.10;1.77;;;14.50;97.10;;;;;;6281057;22;20184;-89
2022/05/29 00:49:50;;;;;;;8.73;1.97;;;14.50;97.30;;;;;;6281515;22;20164;-89
2022/05/29 00:52:16;;;;;;;7.73;1.67;;;14.50;97.40;;;;;;6281144;22;20169;-89
2022/05/29 00:55:09;;;;;;;9.70;1.60;;;14.50;97.20;;;;;;6281580;22;20195;-90
2022/05/29 00:57:39;;;;;;;7.17;1.63;;;14.60;96.80;;;;;;6280991;22;20194;-89
2022/05/29 01:00:10;;;;;;;8.23;1.80;;;14.70;96.60;;;;;;6281180;22;20230;-89
2022/05/29 01:02:36;;;;;;;9.27;1.70;;;14.60;97.20;;;;;;6280772;22;20169;-92
2022/05/29 01:05:07;;;;;;;5.33;1.27;;;14.60;97.10;;;;;;6281335;22;20175;-89
2022/05/29 01:07:35;;;;;;;8.40;1.80;;;14.70;96.80;;;;;;6278175;22;20306;-89
2022/05/29 01:10:03;;;;;;;8.47;1.80;;;14.60;97.10;;;;;;6281613;22;20222;-92
2022/05/29 01:12:28;;;;;;;7.30;1.30;;;14.50;97.50;;;;;;6281478;22;20173;-90
2022/05/29 01:15:07;;;;;;;6.33;1.80;;;14.30;98.10;;;;;;6281371;22;20171;-89
2022/05/29 01:18:00;;;;;;;6.93;1.67;;;14.40;98.10;;;;;;6281168;22;20171;-90
2022/05/29 01:20:28;;;;;;;5.40;1.40;;;14.40;98.30;;;;;;6281398;22;20158;-89
2022/05/29 01:23:26;;;;;;;5.87;1.50;;;14.20;98.60;;;;;;6281035;22;20196;-89
2022/05/29 01:26:24;;;;;;;4.20;1.70;;;14.40;98.20;;;;;;6281132;22;20562;-88
2022/05/29 01:28:59;;;;;;;5.77;1.37;;;14.60;97.50;;;;;;6280868;22;20174;-89
2022/05/29 01:31:48;;;;;;;7.23;1.17;;;14.60;97.40;;;;;;6281122;22;20144;-92
2022/05/29 01:34:35;;;;;;;7.13;1.53;;;14.60;97.70;;;;;;6280727;22;20149;-91
2022/05/29 01:37:22;;;;;;;8.30;1.93;;;14.40;98.10;;;;;;6280935;22;20636;-88
2022/05/29 01:40:10;;;;;;;5.17;1.63;;;14.30;98.30;;;;;;6281129;22;20176;-89
2022/05/29 01:42:43;;;;;;;8.73;1.80;;;14.20;98.50;;;;;;6280836;22;20226;-89
2022/05/29 01:45:55;;;;;;;4.90;1.30;;;14.10;99.10;;;;;;6280768;22;20145;-89
2022/05/29 01:48:46;;;;;;;6.43;1.37;;;14.30;98.50;;;;;;6280919;22;20157;-89
2022/05/29 01:51:13;;;;;;;6.40;1.60;;;14.40;98.30;;;;;;6281343;22;20152;-88
2022/05/29 01:53:43;;;;;;;5.37;1.20;;;14.60;97.60;;;;;;6280816;22;20475;-88
2022/05/29 01:56:23;;;;;;;3.67;1.30;;;14.60;97.30;;;;;;6280929;22;20157;-91
2022/05/29 01:58:58;;;;;;;6.50;1.30;;;14.60;96.90;;;;;;6280230;22;20271;-92
2022/05/29 02:01:29;;;;;;;3.80;1.20;;;14.60;97.10;;;;;;6281115;22;20222;-91
2022/05/29 02:03:57;;;;;;;5.53;1.40;;;14.50;97.00;;;;;;6280571;22;20160;-89
2022/05/29 02:07:47;;;;;;;6.77;2.27;;;14.30;97.80;;;;;;6281034;22;20251;-89
2022/05/29 02:09:20;;;;;;;8.50;1.63;;;14.20;97.90;;;;;;6307558;22;20551;-88
2022/05/29 02:11:49;;;;;;;5.20;2.30;;;14.20;98.00;;;;;;6281034;22;20184;-92
2022/05/29 02:14:19;;;;;;;7.03;1.53;;;14.20;98.00;;;;;;6280233;22;20144;-90
2022/05/29 02:16:49;;;;;;;6.30;1.53;;;14.10;98.50;;;;;;6280621;22;20161;-91
2022/05/29 02:19:22;;;;;;;7.00;1.67;;;14.10;98.80;;;;;;6280330;22;20179;-90
2022/05/29 02:21:50;;;;;;;2.93;1.20;;;14.10;98.40;;;;;;6280889;22;20149;-91
2022/05/29 02:24:20;;;;;;;6.50;1.53;;;13.90;98.60;;;;;;6280757;22;20215;-91
2022/05/29 02:27:06;;;;;;;2.57;1.73;;;13.80;99.20;;;;;;6280819;22;20169;-90
2022/05/29 02:29:33;;;;;;;6.10;1.30;;;13.70;98.70;;;;;;6280279;22;20178;-91
2022/05/29 02:31:58;;;;;;;3.70;1.30;;;13.70;99.20;;;;;;6280665;22;20149;-89
2022/05/29 02:34:35;;;;;;;5.60;1.33;;;13.60;99.60;;;;;;6280689;22;20142;-91
2022/05/29 02:37:30;;;;;;;2.60;1.20;;;13.50;99.90;;;;;;6280685;22;20492;-90
2022/05/29 02:39:59;;;;;;;3.93;1.20;;;13.50;99.90;;;;;;6280353;22;20184;-90
2022/05/29 02:42:57;;;;;;;4.50;1.10;;;13.40;99.90;;;;;;6280456;22;20153;-90
2022/05/29 02:45:34;;;;;;;4.47;1.30;;;13.50;99.90;;;;;;6270873;22;20154;-88
2022/05/29 02:48:33;;;;;;;3.93;1.30;;;13.50;99.90;;;;;;6283380;22;20226;-90
2022/05/29 02:51:34;;;;;;;3.57;1.30;;;13.50;99.90;;;;;;6281329;22;20151;-90
2022/05/29 02:54:00;;;;;;;4.60;1.37;;;13.40;99.90;;;;;;6282120;22;20143;-92
2022/05/29 02:56:26;;;;;;;1.33;1.17;;;13.60;99.90;;;;;;6282183;22;20150;-89
2022/05/29 02:58:54;;;;;;;5.37;1.43;;;13.60;99.90;;;;;;6282357;22;20180;-90
2022/05/29 03:01:38;;;;;;;4.87;1.47;;;13.60;99.90;;;;;;6282437;22;20229;-90
2022/05/29 03:04:10;;;;;;;3.63;1.23;;;13.50;99.90;;;;;;6283034;22;20468;-90
2022/05/29 03:07:11;;;;;;;2.10;0.90;;;13.40;99.90;;;;;;6282433;22;20185;-90
2022/05/29 03:09:51;;;;;;;6.03;1.20;;;13.50;99.90;;;;;;6283127;22;20275;-89
2022/05/29 03:12:41;;;;;;;4.50;1.13;;;13.50;99.00;;;;;;6282075;22;20146;-91
2022/05/29 03:15:48;;;;;;;1.10;1.00;;;13.40;99.00;;;;;;6282197;22;20290;-92
2022/05/29 03:18:23;;;;;;;3.37;1.30;;;13.40;98.60;;;;;;6209071;22;20200;-89
2022/05/29 03:20:49;;;;;;;1.30;1.10;;;13.40;98.40;;;;;;6282320;22;20153;-89
2022/05/29 03:23:20;;;;;;;3.03;1.17;;;13.50;98.70;;;;;;6282789;22;20494;-89
2022/05/29 03:25:54;;;;;;;1.80;0.80;;;13.50;97.90;;;;;;6281788;22;20142;-92
2022/05/29 03:28:29;;;;;;;2.20;1.00;;;13.60;96.70;;;;;;6282260;22;20149;-91
2022/05/29 03:30:56;;;;;;;1.93;1.07;;;13.40;96.00;;;;;;6282294;22;20235;-91
2022/05/29 03:33:22;;;;;;;1.63;0.60;;;13.50;96.00;;;;;;6282502;22;20202;-89
2022/05/29 03:35:54;;;;;;;3.80;0.90;;;13.80;95.50;;;;;;6282051;22;20152;-91
2022/05/29 03:38:21;;;;;;;2.30;0.70;;;13.90;95.00;;;;;;6281976;22;20202;-91
2022/05/29 03:40:49;;;;;;;3.70;1.03;;;13.80;95.50;;;;;;6281655;22;20243;-90
2022/05/29 03:43:15;;;;;;;2.13;0.70;;;14.00;95.00;;;;;;6282311;22;20148;-93
2022/05/29 03:45:40;;;;;;;3.97;1.27;;;14.30;95.10;;;;;;6282089;22;20207;-91
2022/05/29 03:48:06;;;;;;;2.40;0.93;;;14.20;95.50;;;;;;6282024;22;20210;-89
2022/05/29 03:50:35;;;;;;;2.50;1.00;;;14.20;96.00;;;;;;6281797;22;20576;-91
2022/05/29 03:53:03;;;;;;;3.87;1.10;;;14.10;96.60;;;;;;6281712;22;20164;-92
2022/05/29 03:55:29;;;;;;;3.10;1.10;;;13.90;97.00;;;;;;6281464;22;20236;-91
2022/05/29 03:57:55;;;;;;;3.63;1.10;;;13.80;97.60;;;;;;6281831;22;20242;-92
2022/05/29 04:00:22;;;;;;;3.80;1.27;;;13.60;98.40;;;;;;6281963;22;20153;-90
2022/05/29 04:02:48;;;;;;;5.67;1.20;;;13.50;98.80;;;;;;6281930;22;20179;-91
2022/05/29 04:05:21;;;;;;;3.33;1.10;;;13.50;98.80;;;;;;6281970;22;20175;-91
2022/05/29 04:13:20;;;;;;;6.43;1.50;;;13.70;99.00;;;;;;6309201;22;20143;-91
2022/05/29 04:15:46;;;;;;;4.30;1.27;;;13.50;99.60;;;;;;6282279;22;20151;-91
2022/05/29 11:30:02;;;;;;;;;;;;;;;;;;;;;
2022/05/29 11:33:30;;;;;;;1.67;0.60;;;21.80;86.40;;;;;;6154992;23;20252;-92
2022/05/29 11:36:22;;;;;;;1.17;0.50;;;23.10;84.80;;;;;;6154414;23;20173;-92
2022/05/29 11:39:01;;;;;;;2.47;0.37;;;24.40;78.20;;;;;;6130052;23;20200;-92
2022/05/29 11:42:03;;;;;;;2.20;0.67;;;24.40;79.00;;;;;;6130215;23;20173;-92
2022/05/29 11:44:51;;;;;;;1.37;0.40;;;24.20;78.20;;;;;;6129669;23;20176;-92
2022/05/29 11:55:41;;;;;;;;;;;;;;;;;;;;;
2022/05/29 12:09:09;;;;;;;;;;;;;;;;;;;;;
2022/05/29 14:38:37;;;;;;;;;;;;;;;;;;;;;
2022/05/29 14:52:14;;;;;;;;;;;;;;;;;;;;;
2022/05/29 14:55:26;;;;;;;1.73;0.60;;;19.90;92.90;;;;;;6151145;23;20254;-92
2022/05/29 16:17:03;;;;;;;5.23;2.40;;;15.60;99.90;;;;;;6177335;23;20674;-93
2022/05/29 16:26:48;;;;;;;;;;;;;;;;;;;;;
2022/05/29 16:32:51;;;;;;;6.87;2.20;;;15.70;99.90;;;;;;6183938;22;20203;-93
2022/05/29 16:35:27;;;;;;;4.80;1.90;;;15.80;99.90;;;;;;6153137;23;20276;-92
2022/05/29 16:50:14;;;;;;;19.67;17.80;;;17.30;99.90;;;;;;6208262;23;20163;-93
2022/05/29 16:53:22;;;;;;;6.27;2.63;;;17.40;99.90;;;;;;6151748;23;20168;-93
2022/05/29 16:56:13;;;;;;;2.70;1.50;;;17.60;99.90;;;;;;6152934;22;20172;-92
2022/05/29 16:59:05;;;;;;;;;;;;;;;;;;;;;
2022/05/29 17:01:59;;;;;;;3.30;1.17;;;17.70;99.90;;;;;;6179639;23;20245;-93
2022/05/29 17:04:46;;;;;;;;;;;;;;;;;;;;;
2022/05/29 17:07:24;;;;;;;6.37;1.37;;;18.50;98.50;;;;;;6179324;23;20232;-93
2022/05/29 17:10:21;;;;;;;4.00;1.50;;;18.80;98.40;;;;;;6153140;23;20627;-92
2022/05/29 17:12:56;;;;;;;5.17;1.27;;;19.30;96.90;;;;;;6155702;23;20632;-92
2022/05/29 17:15:35;;;;;;;4.37;1.40;;;19.90;95.90;;;;;;6153718;23;20164;-92
2022/05/29 17:18:07;;;;;;;2.50;1.00;;;20.60;95.00;;;;;;6154671;23;20273;-92
2022/05/29 17:21:08;;;;;;;4.03;1.43;;;20.90;94.60;;;;;;6155465;22;20540;-92
2022/05/29 17:23:48;;;;;;;5.70;1.67;;;21.20;93.00;;;;;;6152079;23;20164;-92
2022/05/29 17:26:27;;;;;;;3.73;1.10;;;21.30;93.50;;;;;;6153705;22;20168;-90
2022/05/29 17:29:11;;;;;;;4.37;0.90;;;21.50;92.60;;;;;;6154750;23;20221;-92
2022/05/29 17:32:05;;;;;;;3.60;0.80;;;21.50;92.50;;;;;;6156249;22;20191;-92
2022/05/29 17:34:36;;;;;;;3.40;1.00;;;21.30;90.70;;;;;;6154930;22;20174;-90
2022/05/29 17:37:29;;;;;;;2.67;0.80;;;21.10;91.70;;;;;;6154628;23;20171;-89
2022/05/29 17:40:01;;;;;;;4.30;0.97;;;21.10;92.10;;;;;;6154379;23;20233;-88
2022/05/29 17:42:27;;;;;;;6.00;0.83;;;21.00;90.80;;;;;;6155093;23;20198;-89
2022/05/29 17:44:53;;;;;;;3.30;1.10;;;20.80;90.30;;;;;;6155171;23;20210;-89
2022/05/29 17:47:45;;;;;;;1.13;0.43;;;20.70;89.70;;;;;;6155154;23;20167;-89
2022/05/29 17:50:20;;;;;;;4.00;0.97;;;20.90;90.80;;;;;;6154156;23;20239;-92
2022/05/29 17:52:54;;;;;;;2.23;0.93;;;21.10;90.30;;;;;;6154484;23;20502;-91
2022/05/29 17:55:20;;;;;;;5.30;1.03;;;21.20;89.40;;;;;;6155104;23;20171;-91
2022/05/29 17:57:53;;;;;;;3.00;0.60;;;21.30;87.30;;;;;;6155648;22;20192;-91
2022/05/29 18:00:20;;;;;;;2.00;0.70;;;21.20;86.00;;;;;;6155388;23;20160;-91
2022/05/29 18:02:48;;;;;;;4.63;0.90;;;21.10;86.60;;;;;;6156140;23;20184;-91
2022/05/29 18:05:15;;;;;;;2.67;0.60;;;21.00;87.10;;;;;;6155315;23;20169;-91
2022/05/29 18:07:41;;;;;;;1.93;0.63;;;21.00;87.90;;;;;;6156008;23;20167;-91
2022/05/29 18:10:08;;;;;;;2.77;0.60;;;21.00;88.60;;;;;;6155562;23;20199;-89
2022/05/29 18:12:36;;;;;;;2.13;0.70;;;21.00;89.50;;;;;;6158464;23;20159;-91
2022/05/29 18:15:05;;;;;;;1.70;0.60;;;20.90;88.80;;;;;;6159899;23;20168;-91
2022/05/29 18:17:31;;;;;;;2.03;0.60;;;21.00;88.40;;;;;;6157861;23;20167;-90
2022/05/29 18:19:58;;;;;;;4.40;0.60;;;21.00;86.60;;;;;;6157044;23;20585;-91
2022/05/29 18:22:24;;;;;;;2.27;0.70;;;21.00;86.20;;;;;;6157568;23;20163;-91
2022/05/29 18:24:49;;;;;;;3.17;0.73;;;20.90;88.70;;;;;;6159617;22;20159;-91
2022/05/29 18:27:17;;;;;;;2.93;0.60;;;20.80;87.80;;;;;;6156942;23;20696;-90
2022/05/29 18:29:43;;;;;;;2.30;0.80;;;20.70;89.50;;;;;;6154539;22;20231;-91
2022/05/29 18:32:09;;;;;;;2.93;0.93;;;20.50;88.90;;;;;;6154166;22;20206;-91
2022/05/29 18:34:35;;;;;;;1.83;0.70;;;20.10;85.70;;;;;;6154008;23;20167;-90
2022/05/29 18:37:01;;;;;;;5.03;0.80;;;19.80;86.30;;;;;;6154411;23;20467;-91
2022/05/29 18:39:27;;;;;;;3.43;0.80;;;19.50;87.70;;;;;;6154293;22;20161;-92
2022/05/29 18:41:53;;;;;;;6.63;0.90;;;19.20;87.50;;;;;;6154964;22;20194;-90
2022/05/29 18:44:19;;;;;;;1.77;0.60;;;18.80;89.50;;;;;;6155590;23;20623;-91
2022/05/29 18:46:45;;;;;;;4.10;0.90;;;18.60;89.80;;;;;;6154964;22;20235;-91
2022/05/29 18:49:18;;;;;;;3.07;0.73;;;18.30;90.10;;;;;;6154875;23;20619;-91
2022/05/29 18:51:44;;;;;;;2.67;0.80;;;18.20;90.40;;;;;;6154754;23;20170;-91
2022/05/29 18:54:11;;;;;;;4.03;0.67;;;18.00;90.60;;;;;;6154186;23;20209;-91
2022/05/29 18:56:41;;;;;;;3.20;0.90;;;17.90;91.10;;;;;;6154412;23;20170;-92
2022/05/29 18:59:07;;;;;;;5.87;1.30;;;17.80;91.30;;;;;;6155560;22;20233;-91
2022/05/29 19:01:33;;;;;;;4.97;1.03;;;17.40;92.40;;;;;;6155296;22;20165;-91
2022/05/29 19:03:59;;;;;;;4.43;1.03;;;17.20;93.10;;;;;;6154908;23;20222;-91
2022/05/29 19:06:27;;;;;;;3.70;1.33;;;17.30;92.60;;;;;;6154202;22;20247;-90
2022/05/29 19:08:57;;;;;;;3.33;1.00;;;17.30;92.50;;;;;;6155244;22;20177;-92
2022/05/29 19:11:23;;;;;;;5.73;1.00;;;17.40;92.20;;;;;;6154550;22;20168;-91
2022/05/29 19:13:49;;;;;;;7.67;1.20;;;17.20;92.80;;;;;;6155408;23;20160;-91
2022/05/29 19:16:18;;;;;;;2.83;0.90;;;17.10;93.10;;;;;;6154522;22;20231;-91
2022/05/29 19:18:45;;;;;;;5.60;1.00;;;16.90;93.70;;;;;;6155539;23;20264;-89
2022/05/29 19:21:10;;;;;;;4.67;1.40;;;16.70;94.20;;;;;;6155680;23;20168;-91
2022/05/29 19:23:37;;;;;;;4.57;1.20;;;16.80;93.90;;;;;;6155245;23;20253;-91
2022/05/29 19:26:10;;;;;;;4.87;1.57;;;16.90;93.40;;;;;;6155701;23;20574;-91
2022/05/29 19:41:24;;;;;;;5.17;1.50;;;16.40;94.70;;;;;;5174679;27;20485;-92
2022/05/29 19:43:54;;;;;;;3.57;1.20;;;17.00;95.20;;;;;;5149068;27;20194;-91
2022/05/29 19:46:28;;;;;;;5.27;1.40;;;16.60;95.90;;;;;;5148725;27;20171;-91
2022/05/29 19:49:01;;;;;;;4.50;1.27;;;16.30;96.00;;;;;;5161079;27;20244;-92
2022/05/29 19:52:07;;;;;;;;;;;;;;;;;;;;;
2022/05/29 19:55:14;;;;;;;5.37;1.67;;;16.00;96.60;;;;;;5151793;27;20184;-93
2022/05/29 20:01:34;;;;;;;2.30;1.20;;;15.70;97.80;;;;;;5124570;27;20190;-92
2022/05/29 20:04:57;;;;;;;3.93;1.40;;;15.70;97.70;;;;;;5130222;28;20193;-92
2022/05/29 20:07:52;;;;;;;6.10;1.47;;;15.60;97.90;;;;;;5095472;27;20204;-92
2022/05/29 20:15:03;;;;;;;;;;;;;;;;;;;;;
2022/05/29 20:17:29;;;;;;;6.17;2.43;;;15.10;99.90;;;;;;5135110;27;20667;-92
2022/05/29 20:19:56;;;;;;;2.37;1.40;;;15.10;99.90;;;;;;5112856;28;20193;-92
2022/05/29 20:22:23;;;;;;;4.67;1.47;;;15.10;99.90;;;;;;5116945;28;20648;-91
2022/05/29 20:24:53;;;;;;;8.20;2.00;;;15.00;99.90;;;;;;5112682;28;20185;-88
2022/05/29 20:27:24;;;;;;;9.07;1.60;;;14.90;99.90;;;;;;5113352;28;20192;-89
2022/05/29 20:29:51;;;;;;;6.10;1.97;;;14.80;99.90;;;;;;5125615;27;20208;-89
2022/05/29 20:32:18;;;;;;;4.40;1.50;;;14.80;99.90;;;;;;5113123;28;20176;-91
2022/05/29 20:34:43;;;;;;;7.23;1.73;;;14.80;99.90;;;;;;5110284;27;20180;-91
2022/05/29 20:37:21;;;;;;;3.77;1.70;;;14.70;99.90;;;;;;5113067;27;20196;-91
2022/05/29 20:39:51;;;;;;;2.73;1.47;;;14.70;99.90;;;;;;5111341;28;20180;-91
2022/05/29 20:42:34;;;;;;;5.50;1.83;;;14.60;99.90;;;;;;5112122;28;20216;-92
2022/05/29 20:45:00;;;;;;;6.80;2.00;;;14.80;99.90;;;;;;5107815;28;20252;-93
2022/05/29 20:47:29;;;;;;;6.20;2.40;;;14.60;99.90;;;;;;5111051;28;20218;-92
2022/05/29 20:49:56;;;;;;;6.53;1.80;;;14.60;99.90;;;;;;5118108;28;20208;-93
2022/05/29 20:52:22;;;;;;;6.17;2.00;;;14.50;99.90;;;;;;5114284;28;20200;-91
2022/05/29 20:54:48;;;;;;;5.23;1.80;;;14.40;99.90;;;;;;5104531;28;20205;-91
2022/05/29 20:57:15;;;;;;;3.27;1.60;;;14.40;99.90;;;;;;5103803;28;20284;-91
2022/05/29 20:59:41;;;;;;;7.23;1.73;;;14.30;99.90;;;;;;5118340;28;20176;-90
2022/05/29 21:02:10;;;;;;;4.53;1.80;;;14.20;99.90;;;;;;5117447;28;20236;-91
2022/05/29 21:04:36;;;;;;;5.33;2.30;;;14.20;99.90;;;;;;5111891;28;20600;-90
2022/05/29 21:07:03;;;;;;;4.20;1.87;;;14.20;99.90;;;;;;5098397;28;20194;-90
2022/05/29 21:09:29;;;;;;;3.83;1.90;;;14.10;99.90;;;;;;5115144;28;20193;-90
2022/05/29 21:11:55;;;;;;;4.57;1.77;;;14.00;99.90;;;;;;5117172;28;20557;-90
2022/05/29 21:14:21;;;;;;;4.23;1.80;;;13.90;99.90;;;;;;5116812;28;20175;-91
2022/05/29 21:16:46;;;;;;;5.07;2.00;;;13.90;99.90;;;;;;5115127;28;20180;-91
2022/05/29 21:19:15;;;;;;;5.23;1.93;;;13.80;99.90;;;;;;5106089;28;20187;-90
2022/05/29 21:21:44;;;;;;;5.50;2.00;;;14.00;99.90;;;;;;5101490;28;20193;-90
2022/05/29 21:24:12;;;;;;;4.60;1.70;;;14.10;99.90;;;;;;5096872;28;20192;-90
2022/05/29 21:26:42;;;;;;;5.27;2.57;;;14.00;99.90;;;;;;5111972;28;20192;-90
2022/05/29 21:29:07;;;;;;;4.77;2.07;;;13.90;99.90;;;;;;5117279;28;20598;-90
2022/05/29 21:31:34;;;;;;;6.27;1.80;;;13.90;99.90;;;;;;5115484;28;20183;-90
2022/05/29 21:34:02;;;;;;;4.37;1.63;;;13.80;99.90;;;;;;5097140;28;20196;-90
2022/05/29 21:36:31;;;;;;;4.47;1.90;;;13.80;99.90;;;;;;5105051;28;20172;-90
2022/05/29 21:39:08;;;;;;;5.43;2.23;;;13.80;99.90;;;;;;5117107;28;20183;-95
2022/05/29 21:41:35;;;;;;;6.60;1.77;;;13.90;99.90;;;;;;5115180;28;20265;-94
2022/05/29 21:44:02;;;;;;;6.80;1.87;;;13.70;99.90;;;;;;5096982;28;20560;-95
2022/05/29 21:46:29;;;;;;;6.67;1.83;;;13.50;99.90;;;;;;5100293;28;20192;-91
2022/05/29 21:48:55;;;;;;;8.67;2.17;;;13.50;99.90;;;;;;5116241;28;20200;-95
2022/05/29 21:51:22;;;;;;;4.57;1.80;;;13.70;99.90;;;;;;5116116;28;20194;-96
2022/05/29 21:53:50;;;;;;;3.20;1.73;;;13.70;99.90;;;;;;5116354;28;20556;-95
2022/05/29 21:56:18;;;;;;;5.37;1.90;;;13.70;99.90;;;;;;5101722;28;20175;-90
2022/05/29 21:58:44;;;;;;;4.27;1.57;;;13.70;99.90;;;;;;5116205;28;20235;-90
2022/05/29 22:01:11;;;;;;;4.50;1.67;;;13.70;99.90;;;;;;5108979;28;20181;-89
2022/05/29 22:03:38;;;;;;;4.27;1.53;;;13.50;99.90;;;;;;5096020;28;20220;-91
2022/05/29 22:06:10;;;;;;;4.67;1.70;;;13.50;99.90;;;;;;5096361;28;20693;-90
2022/05/29 22:08:37;;;;;;;4.87;1.67;;;13.50;99.90;;;;;;5127829;28;20188;-90
2022/05/29 22:11:04;;;;;;;4.13;2.13;;;13.50;99.90;;;;;;5096545;28;20612;-90
2022/05/29 22:13:30;;;;;;;12.03;2.53;;;13.50;99.90;;;;;;5096349;28;20181;-90
2022/05/29 22:16:02;;;;;;;8.07;1.70;;;13.40;99.90;;;;;;5102749;28;20207;-90
2022/05/29 22:18:29;;;;;;;5.40;1.70;;;13.50;99.90;;;;;;5116139;28;20199;-90
2022/05/29 22:20:55;;;;;;;5.83;1.67;;;13.40;99.90;;;;;;5110211;28;20183;-91
2022/05/29 22:23:21;;;;;;;9.90;2.00;;;13.30;99.90;;;;;;5110666;28;20191;-91
2022/05/29 22:25:48;;;;;;;3.53;1.73;;;13.40;99.90;;;;;;5116505;28;20553;-90
2022/05/29 22:28:14;;;;;;;5.50;1.60;;;13.20;99.90;;;;;;5117080;28;20175;-90
2022/05/29 22:30:41;;;;;;;6.97;2.00;;;13.20;99.90;;;;;;5116684;28;20752;-91
2022/05/29 22:33:45;;;;;;;9.63;1.93;;;13.10;99.90;;;;;;5116526;28;20183;-90
2022/05/29 22:36:18;;;;;;;5.03;2.20;;;13.10;99.90;;;;;;5071387;28;20260;-91
2022/05/29 22:38:44;;;;;;;5.03;2.00;;;13.20;99.90;;;;;;5116679;28;20662;-90
2022/05/29 22:41:10;;;;;;;7.80;1.87;;;13.10;99.90;;;;;;5116948;28;20180;-90
2022/05/29 22:43:37;;;;;;;4.93;2.37;;;13.10;99.90;;;;;;5117536;28;20174;-91
2022/05/29 22:46:09;;;;;;;5.50;1.90;;;13.20;99.90;;;;;;5116639;28;20530;-91
2022/05/29 22:48:59;;;;;;;3.80;1.70;;;13.30;99.90;;;;;;5113955;28;20191;-90
2022/05/29 22:51:34;;;;;;;5.60;2.00;;;13.40;99.90;;;;;;5101790;28;20222;-90
2022/05/29 22:54:15;;;;;;;5.50;1.73;;;13.30;99.90;;;;;;5126218;28;20183;-89
2022/05/29 22:56:41;;;;;;;4.50;1.90;;;13.30;99.90;;;;;;5122911;28;20639;-90
2022/05/29 22:59:07;;;;;;;8.37;2.20;;;13.20;99.90;;;;;;5118460;28;20203;-91
2022/05/29 23:01:38;;;;;;;7.00;2.17;;;13.20;99.90;;;;;;5114405;28;20245;-90
2022/05/29 23:04:42;;;;;;;7.23;1.73;;;13.20;99.90;;;;;;5095961;28;20176;-90
2022/05/29 23:07:12;;;;;;;3.97;1.60;;;13.20;99.90;;;;;;5100795;28;20271;-91
2022/05/29 23:09:38;;;;;;;4.00;1.90;;;13.00;99.90;;;;;;5097163;28;20197;-91
2022/05/29 23:12:05;;;;;;;4.23;1.77;;;13.00;99.90;;;;;;5095341;28;20214;-90
2022/05/29 23:14:31;;;;;;;2.47;1.23;;;13.00;99.90;;;;;;5095109;28;20179;-91
2022/05/29 23:16:57;;;;;;;4.50;1.80;;;13.00;99.90;;;;;;5111886;28;20184;-90
2022/05/29 23:19:23;;;;;;;6.77;1.87;;;12.90;99.90;;;;;;5115342;28;20661;-90
2022/05/29 23:22:20;;;;;;;5.23;1.90;;;12.90;99.90;;;;;;5095152;28;20184;-90
2022/05/29 23:24:52;;;;;;;7.77;1.70;;;12.80;99.90;;;;;;5089172;28;20568;-90
2022/05/29 23:27:17;;;;;;;5.13;2.07;;;12.70;99.90;;;;;;5095270;28;20182;-90
2022/05/29 23:32:36;;;;;;;3.57;1.57;;;12.60;99.90;;;;;;5113282;28;20671;-89
2022/05/29 23:35:04;;;;;;;4.40;1.73;;;12.60;99.90;;;;;;5094996;28;20180;-90
2022/05/29 23:37:30;;;;;;;7.00;2.30;;;12.60;99.90;;;;;;5111738;28;20212;-91
2022/05/29 23:39:55;;;;;;;4.33;1.60;;;12.70;99.90;;;;;;5115138;28;20212;-90
2022/05/29 23:42:22;;;;;;;5.77;1.60;;;12.60;99.90;;;;;;5111026;28;20210;-91
2022/05/29 23:44:51;;;;;;;5.70;2.00;;;12.60;99.90;;;;;;5094829;28;20242;-90
2022/05/29 23:47:18;;;;;;;4.53;2.23;;;12.40;99.90;;;;;;5094789;28;20191;-91
2022/05/29 23:49:44;;;;;;;3.70;1.80;;;12.30;99.90;;;;;;5094591;28;20211;-90
2022/05/29 23:52:10;;;;;;;4.90;1.80;;;12.30;99.90;;;;;;5100851;28;20627;-90
2022/05/29 23:54:36;;;;;;;5.33;1.97;;;12.20;99.90;;;;;;5115100;28;20190;-90
2022/05/29 23:57:02;;;;;;;5.27;1.87;;;12.30;99.90;;;;;;5100956;28;20233;-90
2022/05/29 23:59:28;;;;;;;4.50;1.93;;;12.20;99.90;;;;;;5114238;28;20183;-90
